sensor_id;sensor_type;location;lat;lon;timestamp;P1;durP1;ratioP1;P2;durP2;ratioP2
75218;SDS011;63801;49.414;19.474;2024-01-30T00:00:31;158.85;;;49.88;;
75218;SDS011;63801;49.414;19.474;2024-01-30T00:02:32;147.05;;;46.72;;
75218;SDS011;63801;49.414;19.474;2024-01-30T00:04:32;140.98;;;44.15;;
75218;SDS011;63801;49.414;19.474;2024-01-30T00:06:32;129.45;;;42.92;;
75218;SDS011;63801;49.414;19.474;2024-01-30T00:08:33;126.38;;;41.28;;
75218;SDS011;63801;49.414;19.474;2024-01-30T00:10:33;126.18;;;40.63;;
75218;SDS011;63801;49.414;19.474;2024-01-30T00:12:34;122.47;;;40.35;;
75218;SDS011;63801;49.414;19.474;2024-01-30T00:14:34;120.60;;;38.63;;
75218;SDS011;63801;49.414;19.474;2024-01-30T00:16:34;117.60;;;39.85;;
75218;SDS011;63801;49.414;19.474;2024-01-30T00:18:35;123.28;;;40.13;;
75218;SDS011;63801;49.414;19.474;2024-01-30T00:20:35;121.68;;;40.08;;
75218;SDS011;63801;49.414;19.474;2024-01-30T00:22:36;155.27;;;45.20;;
75218;SDS011;63801;49.414;19.474;2024-01-30T00:24:36;178.55;;;50.35;;
75218;SDS011;63801;49.414;19.474;2024-01-30T00:26:36;162.80;;;50.05;;
75218;SDS011;63801;49.414;19.474;2024-01-30T00:28:37;147.65;;;47.53;;
75218;SDS011;63801;49.414;19.474;2024-01-30T00:30:38;141.25;;;44.05;;
75218;SDS011;63801;49.414;19.474;2024-01-30T00:32:38;135.65;;;44.20;;
75218;SDS011;63801;49.414;19.474;2024-01-30T00:34:39;131.50;;;44.83;;
75218;SDS011;63801;49.414;19.474;2024-01-30T00:36:39;128.05;;;40.47;;
75218;SDS011;63801;49.414;19.474;2024-01-30T00:38:39;140.02;;;45.70;;
75218;SDS011;63801;49.414;19.474;2024-01-30T00:40:40;142.45;;;45.72;;
75218;SDS011;63801;49.414;19.474;2024-01-30T00:42:41;135.02;;;42.50;;
75218;SDS011;63801;49.414;19.474;2024-01-30T00:44:42;121.03;;;39.40;;
75218;SDS011;63801;49.414;19.474;2024-01-30T00:46:43;119.75;;;38.88;;
75218;SDS011;63801;49.414;19.474;2024-01-30T00:48:43;109.38;;;37.75;;
75218;SDS011;63801;49.414;19.474;2024-01-30T00:50:43;106.93;;;34.08;;
75218;SDS011;63801;49.414;19.474;2024-01-30T00:52:44;107.65;;;32.03;;
75218;SDS011;63801;49.414;19.474;2024-01-30T00:54:45;110.63;;;34.13;;
75218;SDS011;63801;49.414;19.474;2024-01-30T00:56:45;109.03;;;34.20;;
75218;SDS011;63801;49.414;19.474;2024-01-30T00:58:45;93.75;;;32.05;;
75218;SDS011;63801;49.414;19.474;2024-01-30T01:00:46;101.53;;;33.72;;
75218;SDS011;63801;49.414;19.474;2024-01-30T01:02:46;108.75;;;34.75;;
75218;SDS011;63801;49.414;19.474;2024-01-30T01:04:47;108.18;;;34.95;;
75218;SDS011;63801;49.414;19.474;2024-01-30T01:06:47;112.43;;;35.13;;
75218;SDS011;63801;49.414;19.474;2024-01-30T01:08:47;107.95;;;35.45;;
75218;SDS011;63801;49.414;19.474;2024-01-30T01:10:48;103.03;;;35.75;;
75218;SDS011;63801;49.414;19.474;2024-01-30T01:12:48;102.22;;;34.90;;
75218;SDS011;63801;49.414;19.474;2024-01-30T01:14:48;110.05;;;37.15;;
75218;SDS011;63801;49.414;19.474;2024-01-30T01:16:49;97.78;;;33.17;;
75218;SDS011;63801;49.414;19.474;2024-01-30T01:18:49;103.63;;;33.65;;
75218;SDS011;63801;49.414;19.474;2024-01-30T01:20:49;109.45;;;36.42;;
75218;SDS011;63801;49.414;19.474;2024-01-30T01:22:49;92.20;;;34.20;;
75218;SDS011;63801;49.414;19.474;2024-01-30T01:24:50;95.70;;;32.95;;
75218;SDS011;63801;49.414;19.474;2024-01-30T01:26:50;99.18;;;31.75;;
75218;SDS011;63801;49.414;19.474;2024-01-30T01:28:51;89.32;;;31.55;;
75218;SDS011;63801;49.414;19.474;2024-01-30T01:30:51;90.38;;;30.88;;
75218;SDS011;63801;49.414;19.474;2024-01-30T01:32:51;89.00;;;31.55;;
75218;SDS011;63801;49.414;19.474;2024-01-30T01:35:00;90.57;;;29.67;;
75218;SDS011;63801;49.414;19.474;2024-01-30T01:37:01;88.32;;;29.88;;
75218;SDS011;63801;49.414;19.474;2024-01-30T01:39:01;96.53;;;34.30;;
75218;SDS011;63801;49.414;19.474;2024-01-30T01:41:02;109.35;;;34.50;;
75218;SDS011;63801;49.414;19.474;2024-01-30T01:43:03;108.85;;;34.65;;
75218;SDS011;63801;49.414;19.474;2024-01-30T01:45:05;102.97;;;34.77;;
75218;SDS011;63801;49.414;19.474;2024-01-30T01:47:05;111.72;;;39.30;;
75218;SDS011;63801;49.414;19.474;2024-01-30T01:49:06;110.60;;;35.70;;
75218;SDS011;63801;49.414;19.474;2024-01-30T01:51:07;105.75;;;36.22;;
75218;SDS011;63801;49.414;19.474;2024-01-30T01:53:09;106.77;;;37.63;;
75218;SDS011;63801;49.414;19.474;2024-01-30T01:55:10;113.25;;;38.17;;
75218;SDS011;63801;49.414;19.474;2024-01-30T01:57:12;126.33;;;39.57;;
75218;SDS011;63801;49.414;19.474;2024-01-30T01:59:12;124.10;;;40.20;;
75218;SDS011;63801;49.414;19.474;2024-01-30T02:01:13;131.15;;;42.92;;
75218;SDS011;63801;49.414;19.474;2024-01-30T02:03:14;96.55;;;34.53;;
75218;SDS011;63801;49.414;19.474;2024-01-30T02:05:18;109.78;;;35.28;;
75218;SDS011;63801;49.414;19.474;2024-01-30T02:07:18;106.28;;;36.30;;
75218;SDS011;63801;49.414;19.474;2024-01-30T02:09:19;94.25;;;32.92;;
75218;SDS011;63801;49.414;19.474;2024-01-30T02:11:19;101.28;;;33.90;;
75218;SDS011;63801;49.414;19.474;2024-01-30T02:13:20;89.88;;;30.73;;
75218;SDS011;63801;49.414;19.474;2024-01-30T02:15:21;96.80;;;30.45;;
75218;SDS011;63801;49.414;19.474;2024-01-30T02:17:21;100.53;;;33.38;;
75218;SDS011;63801;49.414;19.474;2024-01-30T02:19:23;90.23;;;31.87;;
75218;SDS011;63801;49.414;19.474;2024-01-30T02:21:23;96.60;;;32.28;;
75218;SDS011;63801;49.414;19.474;2024-01-30T02:23:24;91.72;;;30.02;;
75218;SDS011;63801;49.414;19.474;2024-01-30T02:25:38;88.70;;;31.17;;
75218;SDS011;63801;49.414;19.474;2024-01-30T02:27:44;89.82;;;29.83;;
75218;SDS011;63801;49.414;19.474;2024-01-30T02:29:44;82.43;;;29.05;;
75218;SDS011;63801;49.414;19.474;2024-01-30T02:31:45;94.80;;;32.35;;
75218;SDS011;63801;49.414;19.474;2024-01-30T02:33:46;83.32;;;26.98;;
75218;SDS011;63801;49.414;19.474;2024-01-30T02:35:46;76.13;;;25.45;;
75218;SDS011;63801;49.414;19.474;2024-01-30T02:37:46;78.40;;;26.52;;
75218;SDS011;63801;49.414;19.474;2024-01-30T02:39:47;71.70;;;25.83;;
75218;SDS011;63801;49.414;19.474;2024-01-30T02:41:47;65.32;;;23.38;;
75218;SDS011;63801;49.414;19.474;2024-01-30T02:43:47;72.30;;;25.25;;
75218;SDS011;63801;49.414;19.474;2024-01-30T02:45:48;65.35;;;23.75;;
75218;SDS011;63801;49.414;19.474;2024-01-30T02:47:48;69.80;;;23.05;;
75218;SDS011;63801;49.414;19.474;2024-01-30T02:49:48;72.70;;;24.20;;
75218;SDS011;63801;49.414;19.474;2024-01-30T02:51:49;62.63;;;21.17;;
75218;SDS011;63801;49.414;19.474;2024-01-30T02:53:49;51.13;;;19.88;;
75218;SDS011;63801;49.414;19.474;2024-01-30T02:55:49;70.30;;;21.20;;
75218;SDS011;63801;49.414;19.474;2024-01-30T02:57:50;50.53;;;17.75;;
75218;SDS011;63801;49.414;19.474;2024-01-30T02:59:50;50.58;;;19.05;;
75218;SDS011;63801;49.414;19.474;2024-01-30T03:01:50;49.20;;;17.58;;
75218;SDS011;63801;49.414;19.474;2024-01-30T03:03:51;50.70;;;17.33;;
75218;SDS011;63801;49.414;19.474;2024-01-30T03:05:51;51.92;;;16.60;;
75218;SDS011;63801;49.414;19.474;2024-01-30T03:07:51;49.17;;;18.80;;
75218;SDS011;63801;49.414;19.474;2024-01-30T03:09:52;41.53;;;16.65;;
75218;SDS011;63801;49.414;19.474;2024-01-30T03:11:52;44.67;;;17.48;;
75218;SDS011;63801;49.414;19.474;2024-01-30T03:13:52;48.30;;;18.58;;
75218;SDS011;63801;49.414;19.474;2024-01-30T03:15:53;63.50;;;21.08;;
75218;SDS011;63801;49.414;19.474;2024-01-30T03:17:53;69.10;;;24.58;;
75218;SDS011;63801;49.414;19.474;2024-01-30T03:19:54;65.95;;;24.58;;
75218;SDS011;63801;49.414;19.474;2024-01-30T03:21:54;72.30;;;24.45;;
75218;SDS011;63801;49.414;19.474;2024-01-30T03:23:54;64.93;;;23.65;;
75218;SDS011;63801;49.414;19.474;2024-01-30T03:25:55;52.65;;;21.17;;
75218;SDS011;63801;49.414;19.474;2024-01-30T03:27:55;58.17;;;21.67;;
75218;SDS011;63801;49.414;19.474;2024-01-30T03:29:55;61.17;;;20.20;;
75218;SDS011;63801;49.414;19.474;2024-01-30T03:31:56;49.15;;;17.67;;
75218;SDS011;63801;49.414;19.474;2024-01-30T03:33:56;35.80;;;15.75;;
75218;SDS011;63801;49.414;19.474;2024-01-30T03:35:56;42.53;;;15.63;;
75218;SDS011;63801;49.414;19.474;2024-01-30T03:37:56;47.22;;;16.13;;
75218;SDS011;63801;49.414;19.474;2024-01-30T03:39:57;43.20;;;15.18;;
75218;SDS011;63801;49.414;19.474;2024-01-30T03:41:57;62.53;;;21.08;;
75218;SDS011;63801;49.414;19.474;2024-01-30T03:43:58;43.13;;;16.27;;
75218;SDS011;63801;49.414;19.474;2024-01-30T03:45:59;46.13;;;18.75;;
75218;SDS011;63801;49.414;19.474;2024-01-30T03:47:59;46.88;;;18.75;;
75218;SDS011;63801;49.414;19.474;2024-01-30T03:49:59;44.38;;;17.13;;
75218;SDS011;63801;49.414;19.474;2024-01-30T03:52:00;51.47;;;18.50;;
75218;SDS011;63801;49.414;19.474;2024-01-30T03:54:00;40.20;;;16.73;;
75218;SDS011;63801;49.414;19.474;2024-01-30T03:56:00;38.50;;;15.38;;
75218;SDS011;63801;49.414;19.474;2024-01-30T03:58:01;34.60;;;13.13;;
75218;SDS011;63801;49.414;19.474;2024-01-30T04:00:01;47.00;;;16.67;;
75218;SDS011;63801;49.414;19.474;2024-01-30T04:02:03;41.83;;;16.05;;
75218;SDS011;63801;49.414;19.474;2024-01-30T04:04:04;41.92;;;14.95;;
75218;SDS011;63801;49.414;19.474;2024-01-30T04:06:04;43.55;;;17.02;;
75218;SDS011;63801;49.414;19.474;2024-01-30T04:08:05;45.08;;;15.75;;
75218;SDS011;63801;49.414;19.474;2024-01-30T04:10:05;40.00;;;14.93;;
75218;SDS011;63801;49.414;19.474;2024-01-30T04:12:06;42.70;;;14.70;;
75218;SDS011;63801;49.414;19.474;2024-01-30T04:14:07;38.42;;;13.73;;
75218;SDS011;63801;49.414;19.474;2024-01-30T04:16:08;33.00;;;13.85;;
75218;SDS011;63801;49.414;19.474;2024-01-30T04:18:08;36.92;;;12.65;;
75218;SDS011;63801;49.414;19.474;2024-01-30T04:20:15;32.83;;;12.95;;
75218;SDS011;63801;49.414;19.474;2024-01-30T04:22:16;34.55;;;13.02;;
75218;SDS011;63801;49.414;19.474;2024-01-30T04:24:16;34.42;;;13.82;;
75218;SDS011;63801;49.414;19.474;2024-01-30T04:26:18;44.38;;;16.83;;
75218;SDS011;63801;49.414;19.474;2024-01-30T04:28:19;41.63;;;17.33;;
75218;SDS011;63801;49.414;19.474;2024-01-30T04:30:19;46.80;;;18.55;;
75218;SDS011;63801;49.414;19.474;2024-01-30T04:32:19;50.60;;;17.48;;
75218;SDS011;63801;49.414;19.474;2024-01-30T04:34:19;48.47;;;17.50;;
75218;SDS011;63801;49.414;19.474;2024-01-30T04:36:20;49.35;;;17.17;;
75218;SDS011;63801;49.414;19.474;2024-01-30T04:38:20;46.30;;;17.60;;
75218;SDS011;63801;49.414;19.474;2024-01-30T04:40:21;48.75;;;17.33;;
75218;SDS011;63801;49.414;19.474;2024-01-30T04:42:21;52.92;;;16.95;;
75218;SDS011;63801;49.414;19.474;2024-01-30T04:44:21;47.88;;;18.42;;
75218;SDS011;63801;49.414;19.474;2024-01-30T04:46:22;54.53;;;16.75;;
75218;SDS011;63801;49.414;19.474;2024-01-30T04:48:22;42.03;;;17.70;;
75218;SDS011;63801;49.414;19.474;2024-01-30T04:50:23;41.47;;;13.27;;
75218;SDS011;63801;49.414;19.474;2024-01-30T04:52:23;27.65;;;9.88;;
75218;SDS011;63801;49.414;19.474;2024-01-30T04:54:26;26.80;;;10.85;;
75218;SDS011;63801;49.414;19.474;2024-01-30T04:56:27;19.80;;;8.32;;
75218;SDS011;63801;49.414;19.474;2024-01-30T04:58:27;41.85;;;14.45;;
75218;SDS011;63801;49.414;19.474;2024-01-30T05:00:27;32.42;;;11.18;;
75218;SDS011;63801;49.414;19.474;2024-01-30T05:02:28;47.90;;;15.70;;
75218;SDS011;63801;49.414;19.474;2024-01-30T05:04:28;26.73;;;10.38;;
75218;SDS011;63801;49.414;19.474;2024-01-30T05:06:28;22.23;;;7.60;;
75218;SDS011;63801;49.414;19.474;2024-01-30T05:08:29;14.90;;;5.20;;
75218;SDS011;63801;49.414;19.474;2024-01-30T05:10:30;12.80;;;5.40;;
75218;SDS011;63801;49.414;19.474;2024-01-30T05:12:30;14.85;;;5.82;;
75218;SDS011;63801;49.414;19.474;2024-01-30T05:14:30;22.40;;;6.82;;
75218;SDS011;63801;49.414;19.474;2024-01-30T05:16:31;19.73;;;7.25;;
75218;SDS011;63801;49.414;19.474;2024-01-30T05:18:31;28.95;;;9.05;;
75218;SDS011;63801;49.414;19.474;2024-01-30T05:20:32;30.20;;;8.90;;
75218;SDS011;63801;49.414;19.474;2024-01-30T05:22:32;17.90;;;6.30;;
75218;SDS011;63801;49.414;19.474;2024-01-30T05:24:33;11.40;;;4.85;;
75218;SDS011;63801;49.414;19.474;2024-01-30T05:26:33;18.55;;;6.68;;
75218;SDS011;63801;49.414;19.474;2024-01-30T05:28:33;17.40;;;5.65;;
75218;SDS011;63801;49.414;19.474;2024-01-30T05:30:33;35.45;;;12.13;;
75218;SDS011;63801;49.414;19.474;2024-01-30T05:32:34;39.30;;;14.13;;
75218;SDS011;63801;49.414;19.474;2024-01-30T05:34:35;47.83;;;16.63;;
75218;SDS011;63801;49.414;19.474;2024-01-30T05:36:35;33.15;;;13.05;;
75218;SDS011;63801;49.414;19.474;2024-01-30T05:38:35;35.17;;;13.82;;
75218;SDS011;63801;49.414;19.474;2024-01-30T05:40:36;30.00;;;12.57;;
75218;SDS011;63801;49.414;19.474;2024-01-30T05:42:36;29.73;;;13.25;;
75218;SDS011;63801;49.414;19.474;2024-01-30T05:44:36;39.58;;;15.68;;
75218;SDS011;63801;49.414;19.474;2024-01-30T05:46:37;38.83;;;14.70;;
75218;SDS011;63801;49.414;19.474;2024-01-30T05:48:37;29.73;;;14.73;;
75218;SDS011;63801;49.414;19.474;2024-01-30T05:50:37;28.00;;;10.88;;
75218;SDS011;63801;49.414;19.474;2024-01-30T05:52:38;26.33;;;9.75;;
75218;SDS011;63801;49.414;19.474;2024-01-30T05:54:38;20.77;;;8.15;;
75218;SDS011;63801;49.414;19.474;2024-01-30T05:56:38;24.75;;;10.07;;
75218;SDS011;63801;49.414;19.474;2024-01-30T05:58:39;36.30;;;12.40;;
75218;SDS011;63801;49.414;19.474;2024-01-30T06:00:39;30.98;;;12.80;;
75218;SDS011;63801;49.414;19.474;2024-01-30T06:02:39;37.47;;;14.02;;
75218;SDS011;63801;49.414;19.474;2024-01-30T06:04:40;27.58;;;12.60;;
75218;SDS011;63801;49.414;19.474;2024-01-30T06:06:40;41.70;;;17.23;;
75218;SDS011;63801;49.414;19.474;2024-01-30T06:08:41;37.78;;;14.43;;
75218;SDS011;63801;49.414;19.474;2024-01-30T06:10:41;29.38;;;11.20;;
75218;SDS011;63801;49.414;19.474;2024-01-30T06:12:42;42.65;;;18.27;;
75218;SDS011;63801;49.414;19.474;2024-01-30T06:14:42;25.80;;;10.45;;
75218;SDS011;63801;49.414;19.474;2024-01-30T06:16:43;30.02;;;12.10;;
75218;SDS011;63801;49.414;19.474;2024-01-30T06:18:43;26.52;;;9.02;;
75218;SDS011;63801;49.414;19.474;2024-01-30T06:20:43;22.33;;;9.57;;
75218;SDS011;63801;49.414;19.474;2024-01-30T06:22:43;12.30;;;5.57;;
75218;SDS011;63801;49.414;19.474;2024-01-30T06:24:44;18.02;;;6.53;;
75218;SDS011;63801;49.414;19.474;2024-01-30T06:26:53;12.05;;;4.72;;
75218;SDS011;63801;49.414;19.474;2024-01-30T06:28:53;16.83;;;6.90;;
75218;SDS011;63801;49.414;19.474;2024-01-30T06:30:54;21.77;;;7.57;;
75218;SDS011;63801;49.414;19.474;2024-01-30T06:32:54;20.73;;;8.43;;
75218;SDS011;63801;49.414;19.474;2024-01-30T06:34:54;33.28;;;13.30;;
75218;SDS011;63801;49.414;19.474;2024-01-30T06:36:55;53.75;;;22.38;;
75218;SDS011;63801;49.414;19.474;2024-01-30T06:38:55;45.90;;;16.85;;
75218;SDS011;63801;49.414;19.474;2024-01-30T06:40:55;33.90;;;14.30;;
75218;SDS011;63801;49.414;19.474;2024-01-30T06:42:56;43.45;;;20.92;;
75218;SDS011;63801;49.414;19.474;2024-01-30T06:44:56;44.92;;;20.23;;
75218;SDS011;63801;49.414;19.474;2024-01-30T06:46:56;24.85;;;9.95;;
75218;SDS011;63801;49.414;19.474;2024-01-30T06:48:56;21.80;;;8.80;;
75218;SDS011;63801;49.414;19.474;2024-01-30T06:50:57;17.70;;;6.85;;
75218;SDS011;63801;49.414;19.474;2024-01-30T06:52:57;28.52;;;10.00;;
75218;SDS011;63801;49.414;19.474;2024-01-30T06:54:58;26.70;;;12.10;;
75218;SDS011;63801;49.414;19.474;2024-01-30T06:56:58;24.40;;;10.93;;
75218;SDS011;63801;49.414;19.474;2024-01-30T06:58:59;29.92;;;12.88;;
75218;SDS011;63801;49.414;19.474;2024-01-30T07:00:59;20.58;;;9.60;;
75218;SDS011;63801;49.414;19.474;2024-01-30T07:03:00;28.42;;;13.15;;
75218;SDS011;63801;49.414;19.474;2024-01-30T07:05:00;30.77;;;13.15;;
75218;SDS011;63801;49.414;19.474;2024-01-30T07:07:00;29.17;;;14.63;;
75218;SDS011;63801;49.414;19.474;2024-01-30T07:09:01;27.58;;;13.43;;
75218;SDS011;63801;49.414;19.474;2024-01-30T07:11:01;25.33;;;12.82;;
75218;SDS011;63801;49.414;19.474;2024-01-30T07:13:01;26.75;;;11.82;;
75218;SDS011;63801;49.414;19.474;2024-01-30T07:15:02;30.48;;;11.70;;
75218;SDS011;63801;49.414;19.474;2024-01-30T07:17:03;26.45;;;12.43;;
75218;SDS011;63801;49.414;19.474;2024-01-30T07:19:03;23.15;;;11.15;;
75218;SDS011;63801;49.414;19.474;2024-01-30T07:21:04;27.67;;;11.27;;
75218;SDS011;63801;49.414;19.474;2024-01-30T07:23:04;22.90;;;10.27;;
75218;SDS011;63801;49.414;19.474;2024-01-30T07:25:05;28.70;;;12.15;;
75218;SDS011;63801;49.414;19.474;2024-01-30T07:27:06;27.73;;;12.40;;
75218;SDS011;63801;49.414;19.474;2024-01-30T07:29:06;40.25;;;15.68;;
75218;SDS011;63801;49.414;19.474;2024-01-30T07:31:06;66.43;;;23.92;;
75218;SDS011;63801;49.414;19.474;2024-01-30T07:33:07;52.38;;;22.55;;
75218;SDS011;63801;49.414;19.474;2024-01-30T07:35:08;47.30;;;19.75;;
75218;SDS011;63801;49.414;19.474;2024-01-30T07:37:08;38.70;;;16.80;;
75218;SDS011;63801;49.414;19.474;2024-01-30T07:39:09;39.88;;;16.33;;
75218;SDS011;63801;49.414;19.474;2024-01-30T07:41:10;31.42;;;13.70;;
75218;SDS011;63801;49.414;19.474;2024-01-30T07:43:11;33.78;;;15.77;;
75218;SDS011;63801;49.414;19.474;2024-01-30T07:45:11;29.77;;;14.40;;
75218;SDS011;63801;49.414;19.474;2024-01-30T07:47:11;22.33;;;12.02;;
75218;SDS011;63801;49.414;19.474;2024-01-30T07:49:12;22.55;;;12.00;;
75218;SDS011;63801;49.414;19.474;2024-01-30T07:51:14;16.80;;;7.78;;
75218;SDS011;63801;49.414;19.474;2024-01-30T07:53:14;27.38;;;14.10;;
75218;SDS011;63801;49.414;19.474;2024-01-30T07:55:15;20.98;;;10.70;;
75218;SDS011;63801;49.414;19.474;2024-01-30T07:57:15;60.50;;;31.58;;
75218;SDS011;63801;49.414;19.474;2024-01-30T07:59:16;55.17;;;28.17;;
75218;SDS011;63801;49.414;19.474;2024-01-30T08:01:17;37.10;;;17.20;;
75218;SDS011;63801;49.414;19.474;2024-01-30T08:03:17;34.70;;;17.05;;
75218;SDS011;63801;49.414;19.474;2024-01-30T08:05:18;32.38;;;14.65;;
75218;SDS011;63801;49.414;19.474;2024-01-30T08:07:18;42.17;;;17.02;;
75218;SDS011;63801;49.414;19.474;2024-01-30T08:09:19;38.88;;;17.42;;
75218;SDS011;63801;49.414;19.474;2024-01-30T08:11:20;29.67;;;14.68;;
75218;SDS011;63801;49.414;19.474;2024-01-30T08:13:25;33.30;;;14.68;;
75218;SDS011;63801;49.414;19.474;2024-01-30T08:15:25;29.00;;;13.55;;
75218;SDS011;63801;49.414;19.474;2024-01-30T08:17:26;17.92;;;9.20;;
75218;SDS011;63801;49.414;19.474;2024-01-30T08:19:26;19.38;;;9.52;;
75218;SDS011;63801;49.414;19.474;2024-01-30T08:21:26;20.17;;;9.20;;
75218;SDS011;63801;49.414;19.474;2024-01-30T08:23:27;13.77;;;7.47;;
75218;SDS011;63801;49.414;19.474;2024-01-30T08:25:27;16.73;;;8.40;;
75218;SDS011;63801;49.414;19.474;2024-01-30T08:27:27;24.90;;;10.95;;
75218;SDS011;63801;49.414;19.474;2024-01-30T08:29:28;24.70;;;10.07;;
75218;SDS011;63801;49.414;19.474;2024-01-30T08:31:28;24.85;;;11.90;;
75218;SDS011;63801;49.414;19.474;2024-01-30T08:33:28;43.58;;;21.10;;
75218;SDS011;63801;49.414;19.474;2024-01-30T08:35:29;52.20;;;25.83;;
75218;SDS011;63801;49.414;19.474;2024-01-30T08:37:31;53.08;;;28.48;;
75218;SDS011;63801;49.414;19.474;2024-01-30T08:39:31;61.78;;;31.90;;
75218;SDS011;63801;49.414;19.474;2024-01-30T08:41:32;51.10;;;29.10;;
75218;SDS011;63801;49.414;19.474;2024-01-30T08:43:32;54.35;;;28.38;;
75218;SDS011;63801;49.414;19.474;2024-01-30T08:45:32;48.67;;;27.48;;
75218;SDS011;63801;49.414;19.474;2024-01-30T08:47:33;50.65;;;28.85;;
75218;SDS011;63801;49.414;19.474;2024-01-30T08:49:33;51.08;;;28.08;;
75218;SDS011;63801;49.414;19.474;2024-01-30T08:51:33;46.25;;;25.90;;
75218;SDS011;63801;49.414;19.474;2024-01-30T08:53:34;67.82;;;37.45;;
75218;SDS011;63801;49.414;19.474;2024-01-30T08:55:35;58.50;;;31.52;;
75218;SDS011;63801;49.414;19.474;2024-01-30T08:57:36;57.90;;;33.83;;
75218;SDS011;63801;49.414;19.474;2024-01-30T08:59:36;62.53;;;35.50;;
75218;SDS011;63801;49.414;19.474;2024-01-30T09:01:36;65.35;;;38.42;;
75218;SDS011;63801;49.414;19.474;2024-01-30T09:03:37;82.38;;;43.92;;
75218;SDS011;63801;49.414;19.474;2024-01-30T09:05:40;70.45;;;39.67;;
75218;SDS011;63801;49.414;19.474;2024-01-30T09:07:40;69.32;;;38.92;;
75218;SDS011;63801;49.414;19.474;2024-01-30T09:09:40;77.35;;;41.47;;
75218;SDS011;63801;49.414;19.474;2024-01-30T09:11:41;62.40;;;31.70;;
75218;SDS011;63801;49.414;19.474;2024-01-30T09:13:41;46.70;;;24.25;;
75218;SDS011;63801;49.414;19.474;2024-01-30T09:15:42;33.35;;;16.00;;
75218;SDS011;63801;49.414;19.474;2024-01-30T09:17:42;30.77;;;15.23;;
75218;SDS011;63801;49.414;19.474;2024-01-30T09:19:42;26.65;;;12.80;;
75218;SDS011;63801;49.414;19.474;2024-01-30T09:21:43;24.90;;;11.27;;
75218;SDS011;63801;49.414;19.474;2024-01-30T09:23:43;15.52;;;8.18;;
75218;SDS011;63801;49.414;19.474;2024-01-30T09:25:43;9.18;;;4.85;;
75218;SDS011;63801;49.414;19.474;2024-01-30T09:27:43;15.40;;;7.50;;
75218;SDS011;63801;49.414;19.474;2024-01-30T09:29:44;10.55;;;5.03;;
75218;SDS011;63801;49.414;19.474;2024-01-30T09:31:45;9.82;;;5.35;;
75218;SDS011;63801;49.414;19.474;2024-01-30T09:33:46;21.48;;;12.18;;
75218;SDS011;63801;49.414;19.474;2024-01-30T09:35:48;27.65;;;15.40;;
75218;SDS011;63801;49.414;19.474;2024-01-30T09:37:48;10.90;;;4.95;;
75218;SDS011;63801;49.414;19.474;2024-01-30T09:39:48;10.45;;;5.18;;
75218;SDS011;63801;49.414;19.474;2024-01-30T09:41:49;8.90;;;4.65;;
75218;SDS011;63801;49.414;19.474;2024-01-30T09:44:05;9.18;;;4.47;;
75218;SDS011;63801;49.414;19.474;2024-01-30T09:46:07;8.50;;;4.50;;
75218;SDS011;63801;49.414;19.474;2024-01-30T09:48:12;7.75;;;4.20;;
75218;SDS011;63801;49.414;19.474;2024-01-30T09:50:13;8.18;;;4.03;;
75218;SDS011;63801;49.414;19.474;2024-01-30T09:52:14;7.93;;;3.92;;
75218;SDS011;63801;49.414;19.474;2024-01-30T09:54:15;9.38;;;3.85;;
75218;SDS011;63801;49.414;19.474;2024-01-30T09:56:16;7.20;;;3.63;;
75218;SDS011;63801;49.414;19.474;2024-01-30T09:58:16;6.13;;;3.25;;
75218;SDS011;63801;49.414;19.474;2024-01-30T10:00:17;7.78;;;3.97;;
75218;SDS011;63801;49.414;19.474;2024-01-30T10:02:17;7.85;;;3.53;;
75218;SDS011;63801;49.414;19.474;2024-01-30T10:04:19;6.82;;;3.83;;
75218;SDS011;63801;49.414;19.474;2024-01-30T10:06:19;6.88;;;3.53;;
75218;SDS011;63801;49.414;19.474;2024-01-30T10:08:21;6.88;;;3.80;;
75218;SDS011;63801;49.414;19.474;2024-01-30T10:10:22;7.25;;;3.88;;
75218;SDS011;63801;49.414;19.474;2024-01-30T10:12:25;9.10;;;3.85;;
75218;SDS011;63801;49.414;19.474;2024-01-30T10:16:26;6.43;;;3.30;;
75218;SDS011;63801;49.414;19.474;2024-01-30T10:18:27;8.52;;;3.35;;
75218;SDS011;63801;49.414;19.474;2024-01-30T10:20:27;7.80;;;4.10;;
75218;SDS011;63801;49.414;19.474;2024-01-30T10:22:28;10.52;;;4.75;;
75218;SDS011;63801;49.414;19.474;2024-01-30T10:24:28;8.18;;;4.25;;
75218;SDS011;63801;49.414;19.474;2024-01-30T10:26:31;8.60;;;4.32;;
75218;SDS011;63801;49.414;19.474;2024-01-30T10:28:34;9.20;;;4.15;;
75218;SDS011;63801;49.414;19.474;2024-01-30T10:30:34;9.32;;;3.92;;
75218;SDS011;63801;49.414;19.474;2024-01-30T10:32:34;8.38;;;3.70;;
75218;SDS011;63801;49.414;19.474;2024-01-30T10:34:35;7.22;;;3.47;;
75218;SDS011;63801;49.414;19.474;2024-01-30T10:36:41;8.98;;;4.30;;
75218;SDS011;63801;49.414;19.474;2024-01-30T10:38:46;11.57;;;5.75;;
75218;SDS011;63801;49.414;19.474;2024-01-30T10:40:51;8.82;;;4.72;;
75218;SDS011;63801;49.414;19.474;2024-01-30T10:42:56;11.90;;;5.50;;
75218;SDS011;63801;49.414;19.474;2024-01-30T10:44:59;9.30;;;4.97;;
75218;SDS011;63801;49.414;19.474;2024-01-30T10:47:06;8.25;;;4.18;;
75218;SDS011;63801;49.414;19.474;2024-01-30T10:49:11;11.00;;;4.50;;
75218;SDS011;63801;49.414;19.474;2024-01-30T10:51:13;9.52;;;4.18;;
75218;SDS011;63801;49.414;19.474;2024-01-30T10:53:14;11.57;;;4.60;;
75218;SDS011;63801;49.414;19.474;2024-01-30T10:55:17;10.30;;;4.55;;
75218;SDS011;63801;49.414;19.474;2024-01-30T10:57:18;10.30;;;5.03;;
75218;SDS011;63801;49.414;19.474;2024-01-30T10:59:21;10.82;;;5.10;;
75218;SDS011;63801;49.414;19.474;2024-01-30T11:01:23;8.43;;;4.22;;
75218;SDS011;63801;49.414;19.474;2024-01-30T11:03:25;8.77;;;4.43;;
75218;SDS011;63801;49.414;19.474;2024-01-30T11:05:25;8.40;;;4.28;;
75218;SDS011;63801;49.414;19.474;2024-01-30T11:07:28;9.98;;;4.43;;
75218;SDS011;63801;49.414;19.474;2024-01-30T11:09:29;11.13;;;4.88;;
75218;SDS011;63801;49.414;19.474;2024-01-30T11:11:30;8.00;;;3.78;;
75218;SDS011;63801;49.414;19.474;2024-01-30T11:13:30;8.93;;;3.88;;
75218;SDS011;63801;49.414;19.474;2024-01-30T11:15:31;8.68;;;3.75;;
75218;SDS011;63801;49.414;19.474;2024-01-30T11:19:47;8.25;;;4.10;;
75218;SDS011;63801;49.414;19.474;2024-01-30T11:21:49;7.97;;;3.65;;
75218;SDS011;63801;49.414;19.474;2024-01-30T11:23:54;11.63;;;4.05;;
75218;SDS011;63801;49.414;19.474;2024-01-30T11:25:55;8.75;;;3.88;;
75218;SDS011;63801;49.414;19.474;2024-01-30T11:27:57;8.68;;;4.00;;
75218;SDS011;63801;49.414;19.474;2024-01-30T11:30:01;6.63;;;3.50;;
75218;SDS011;63801;49.414;19.474;2024-01-30T11:32:02;9.45;;;4.10;;
75218;SDS011;63801;49.414;19.474;2024-01-30T11:34:03;5.63;;;3.30;;
75218;SDS011;63801;49.414;19.474;2024-01-30T11:36:05;9.98;;;4.57;;
75218;SDS011;63801;49.414;19.474;2024-01-30T11:38:07;12.80;;;5.20;;
75218;SDS011;63801;49.414;19.474;2024-01-30T11:40:09;9.13;;;3.83;;
75218;SDS011;63801;49.414;19.474;2024-01-30T11:42:10;8.65;;;3.97;;
75218;SDS011;63801;49.414;19.474;2024-01-30T11:44:11;7.82;;;3.67;;